createdAt,value
2022-12-25T00:00:55.483Z,7.63
2022-12-25T00:03:23.090Z,7.63
2022-12-25T00:05:50.179Z,7.66
2022-12-25T00:08:17.153Z,7.67
2022-12-25T00:10:45.456Z,7.68
2022-12-25T00:13:12.800Z,7.63
2022-12-25T00:15:40.698Z,7.60
2022-12-25T00:18:07.695Z,7.64
2022-12-25T00:20:34.697Z,7.63
2022-12-25T00:23:01.804Z,7.60
2022-12-25T00:25:28.872Z,7.62
2022-12-25T00:27:55.931Z,7.60
2022-12-25T00:30:22.908Z,7.51
2022-12-25T00:32:49.933Z,7.52
2022-12-25T00:35:16.999Z,7.47
2022-12-25T00:37:44.069Z,7.45
2022-12-25T00:40:11.453Z,7.49
2022-12-25T00:42:38.755Z,7.48
2022-12-25T00:45:06.330Z,7.49
2022-12-25T00:47:33.377Z,7.50
2022-12-25T00:50:00.515Z,7.53
2022-12-25T00:52:27.589Z,7.53
2022-12-25T00:54:54.673Z,7.54
2022-12-25T00:57:21.751Z,7.54
2022-12-25T00:59:48.751Z,7.57
2022-12-25T01:02:15.989Z,7.60
2022-12-25T01:04:43.168Z,7.60
2022-12-25T01:07:10.169Z,7.63
2022-12-25T01:09:37.640Z,7.62
2022-12-25T01:12:04.834Z,7.71
2022-12-25T01:14:31.893Z,7.71
2022-12-25T01:16:59.024Z,7.73
2022-12-25T01:19:26.290Z,7.73
2022-12-25T01:21:53.399Z,7.68
2022-12-25T01:24:20.536Z,7.69
2022-12-25T01:26:47.665Z,7.65
2022-12-25T01:29:14.731Z,7.59
2022-12-25T01:31:42.068Z,7.59
2022-12-25T01:34:09.355Z,7.61
2022-12-25T01:36:36.391Z,7.66
2022-12-25T01:39:03.932Z,7.69
2022-12-25T01:41:31.127Z,7.70
2022-12-25T01:44:14.474Z,7.68
2022-12-25T01:46:43.401Z,7.70
2022-12-25T01:49:22.468Z,7.63
2022-12-25T01:52:02.220Z,7.59
2022-12-25T01:54:33.375Z,7.62
2022-12-25T01:57:09.311Z,7.55
2022-12-25T01:59:37.507Z,7.47
2022-12-25T02:02:04.668Z,7.45
2022-12-25T02:04:38.215Z,7.44
2022-12-25T02:07:13.159Z,7.44
2022-12-25T02:09:41.202Z,7.46
2022-12-25T02:12:14.784Z,7.43
2022-12-25T02:14:41.843Z,7.47
2022-12-25T02:17:42.950Z,7.46
2022-12-25T02:20:33.389Z,7.49
2022-12-25T02:23:38.234Z,7.48
2022-12-25T02:26:29.823Z,7.50
2022-12-25T02:29:25.293Z,7.52
2022-12-25T02:32:01.915Z,7.54
2022-12-25T02:34:38.068Z,7.58
2022-12-25T02:37:12.890Z,7.60
2022-12-25T02:39:44.084Z,7.63
2022-12-25T02:42:22.451Z,7.70
2022-12-25T02:44:51.337Z,7.72
2022-12-25T02:47:19.777Z,7.71
2022-12-25T02:49:49.301Z,7.68
2022-12-25T02:52:19.817Z,7.74
2022-12-25T02:54:59.711Z,7.74
2022-12-25T02:57:32.293Z,7.74
2022-12-25T03:00:01.983Z,7.75
2022-12-25T03:02:31.134Z,7.75
2022-12-25T03:05:02.937Z,7.75
2022-12-25T03:07:30.929Z,7.78
2022-12-25T03:10:05.007Z,7.77
2022-12-25T03:12:42.387Z,7.76
2022-12-25T03:15:12.565Z,7.67
2022-12-25T03:17:39.677Z,7.72
2022-12-25T03:20:07.535Z,7.64
2022-12-25T03:22:34.853Z,7.69
2022-12-25T03:25:02.692Z,7.69
2022-12-25T03:27:33.153Z,7.69
2022-12-25T03:30:00.882Z,7.68
2022-12-25T03:32:39.641Z,7.68
2022-12-25T03:35:31.325Z,7.69
2022-12-25T03:38:23.078Z,7.71
2022-12-25T03:41:08.132Z,7.62
2022-12-25T03:43:54.161Z,7.62
2022-12-25T03:46:27.309Z,7.61
2022-12-25T03:49:03.839Z,7.63
2022-12-25T03:51:35.910Z,7.59
2022-12-25T03:54:06.135Z,7.57
2022-12-25T03:56:35.996Z,7.56
2022-12-25T03:59:03.461Z,7.51
2022-12-25T04:01:30.572Z,7.54
2022-12-25T04:03:57.756Z,7.50
2022-12-25T04:06:24.743Z,7.54
2022-12-25T04:08:51.847Z,7.52
2022-12-25T04:11:19.015Z,7.53
2022-12-25T04:13:45.998Z,7.50
2022-12-25T04:16:13.068Z,7.54
2022-12-25T04:18:40.582Z,7.58
2022-12-25T04:21:07.621Z,7.60
2022-12-25T04:23:34.667Z,7.61
2022-12-25T04:26:01.715Z,7.59
2022-12-25T04:28:28.819Z,7.57
2022-12-25T04:31:00.672Z,7.60
2022-12-25T04:33:27.810Z,7.64
2022-12-25T04:35:54.857Z,7.59
2022-12-25T04:38:21.938Z,7.59
2022-12-25T04:40:49.032Z,7.57
2022-12-25T04:43:16.082Z,7.60
2022-12-25T04:45:43.095Z,7.61
2022-12-25T04:48:10.125Z,7.63
2022-12-25T04:50:37.180Z,7.62
2022-12-25T04:53:04.300Z,7.70
2022-12-25T04:55:31.346Z,7.66
2022-12-25T04:57:58.343Z,7.67
2022-12-25T05:00:25.362Z,7.68
2022-12-25T05:02:52.576Z,7.64
2022-12-25T05:05:19.869Z,7.65
2022-12-25T05:07:46.946Z,7.61
2022-12-25T05:10:14.047Z,7.54
2022-12-25T05:12:41.204Z,7.53
2022-12-25T05:15:08.668Z,7.54
2022-12-25T05:17:35.657Z,7.49
2022-12-25T05:20:03.447Z,7.49
2022-12-25T05:22:30.547Z,7.51
2022-12-25T05:24:57.540Z,7.51
2022-12-25T05:27:24.725Z,7.50
2022-12-25T05:29:51.709Z,7.50
2022-12-25T05:32:18.788Z,7.49
2022-12-25T05:34:45.882Z,7.53
2022-12-25T05:37:13.053Z,7.54
2022-12-25T05:39:40.174Z,7.54
2022-12-25T05:42:07.179Z,7.50
2022-12-25T05:44:34.236Z,7.45
2022-12-25T05:47:01.409Z,7.47
2022-12-25T05:49:28.495Z,7.45
2022-12-25T05:51:55.645Z,7.44
2022-12-25T05:54:22.669Z,7.45
2022-12-25T05:56:49.804Z,7.42
2022-12-25T05:59:16.928Z,7.43
2022-12-25T06:01:44.049Z,7.38
2022-12-25T06:04:12.993Z,7.43
2022-12-25T06:06:40.696Z,7.45
2022-12-25T06:09:08.675Z,7.47
2022-12-25T06:11:35.679Z,7.46
2022-12-25T06:14:02.797Z,7.49
2022-12-25T06:16:37.324Z,7.46
2022-12-25T06:19:05.692Z,7.51
2022-12-25T06:21:33.019Z,7.49
2022-12-25T06:24:01.121Z,7.51
2022-12-25T06:26:28.530Z,7.49
2022-12-25T06:28:55.573Z,7.47
2022-12-25T06:31:23.990Z,7.46
2022-12-25T06:33:51.298Z,7.45
2022-12-25T06:36:21.399Z,7.45
2022-12-25T06:38:50.602Z,7.45
2022-12-25T06:41:20.228Z,7.45
2022-12-25T06:43:53.090Z,7.45
2022-12-25T06:46:20.969Z,7.46
2022-12-25T06:48:48.122Z,7.48
2022-12-25T06:51:16.711Z,7.51
2022-12-25T06:53:43.865Z,7.52
2022-12-25T06:56:13.684Z,7.54
2022-12-25T06:58:46.159Z,7.53
2022-12-25T07:01:28.494Z,7.55
2022-12-25T07:04:01.790Z,7.56
2022-12-25T07:06:29.261Z,7.54
2022-12-25T07:08:56.720Z,7.59
2022-12-25T07:11:24.382Z,7.59
2022-12-25T07:13:51.449Z,7.63
2022-12-25T07:16:18.581Z,7.63
2022-12-25T07:18:45.803Z,7.58
2022-12-25T07:21:18.657Z,7.64
2022-12-25T07:23:47.020Z,7.64
2022-12-25T07:26:14.466Z,7.64
2022-12-25T07:28:41.576Z,7.68
2022-12-25T07:31:14.105Z,7.71
2022-12-25T07:33:41.687Z,7.68
2022-12-25T07:36:12.589Z,7.65
2022-12-25T07:38:41.701Z,7.68
2022-12-25T07:41:10.547Z,7.63
2022-12-25T07:43:37.665Z,7.69
2022-12-25T07:46:05.195Z,7.71
2022-12-25T07:48:32.604Z,7.75
2022-12-25T07:51:04.914Z,7.75
2022-12-25T07:53:32.548Z,7.75
2022-12-25T07:56:06.038Z,7.80
2022-12-25T07:58:34.213Z,7.85
2022-12-25T08:01:05.945Z,7.85
2022-12-25T08:03:33.792Z,7.87
2022-12-25T08:06:02.274Z,7.91
2022-12-25T08:08:29.616Z,7.93
2022-12-25T08:10:56.632Z,7.90
2022-12-25T08:13:23.875Z,7.86
2022-12-25T08:15:51.082Z,7.85
2022-12-25T08:18:18.163Z,7.83
2022-12-25T08:20:45.161Z,7.87
2022-12-25T08:23:12.153Z,7.94
2022-12-25T08:25:39.313Z,8.01
2022-12-25T08:28:06.402Z,8.04
2022-12-25T08:30:33.614Z,8.00
2022-12-25T08:33:00.733Z,8.03
2022-12-25T08:35:29.066Z,8.08
2022-12-25T08:37:56.045Z,8.12
2022-12-25T08:40:23.099Z,8.13
2022-12-25T08:42:50.092Z,8.15
2022-12-25T08:45:17.176Z,8.23
2022-12-25T08:47:44.165Z,8.28
2022-12-25T08:50:11.184Z,8.27
2022-12-25T08:52:38.586Z,8.41
2022-12-25T08:55:06.052Z,8.48
2022-12-25T08:57:33.072Z,8.50
2022-12-25T09:00:02.731Z,8.57
2022-12-25T09:02:29.975Z,8.62
2022-12-25T09:04:57.310Z,8.62
2022-12-25T09:07:24.469Z,8.66
2022-12-25T09:09:51.599Z,8.68
2022-12-25T09:12:18.855Z,8.81
2022-12-25T09:14:45.906Z,8.90
2022-12-25T09:17:12.961Z,8.96
2022-12-25T09:19:40.094Z,9.02
2022-12-25T09:22:07.105Z,9.11
2022-12-25T09:24:34.202Z,9.22
2022-12-25T09:27:01.354Z,9.26
2022-12-25T09:29:28.390Z,9.27
2022-12-25T09:31:55.410Z,9.21
2022-12-25T09:34:22.590Z,9.18
2022-12-25T09:36:49.877Z,9.21
2022-12-25T09:39:17.085Z,9.34
2022-12-25T09:42:05.299Z,9.45
2022-12-25T09:44:37.210Z,9.54
2022-12-25T09:47:21.934Z,9.69
2022-12-25T09:50:18.706Z,9.74
2022-12-25T09:53:16.358Z,9.73
2022-12-25T09:55:53.215Z,9.84
2022-12-25T09:58:20.296Z,9.83
2022-12-25T10:00:57.585Z,9.84
2022-12-25T10:03:46.282Z,9.86
2022-12-25T10:06:16.972Z,9.86
2022-12-25T10:08:43.919Z,9.84
2022-12-25T10:11:26.017Z,9.80
2022-12-25T10:14:08.025Z,9.73
2022-12-25T10:16:50.317Z,9.73
2022-12-25T10:19:33.500Z,9.72
2022-12-25T10:22:09.049Z,9.62
2022-12-25T10:24:42.693Z,9.61
2022-12-25T10:27:32.487Z,9.58
2022-12-25T10:30:01.629Z,9.54
2022-12-25T10:32:28.734Z,9.57
2022-12-25T10:34:55.944Z,9.63
2022-12-25T10:37:23.036Z,9.59
2022-12-25T10:39:50.037Z,9.62
2022-12-25T10:42:28.713Z,9.67
2022-12-25T10:44:59.225Z,9.68
2022-12-25T10:47:30.859Z,9.72
2022-12-25T10:49:58.719Z,9.70
2022-12-25T10:52:28.526Z,9.75
2022-12-25T10:54:55.911Z,9.84
2022-12-25T10:57:25.708Z,9.88
2022-12-25T10:59:54.985Z,9.97
2022-12-25T11:02:27.303Z,10.06
2022-12-25T11:05:04.121Z,10.19
2022-12-25T11:07:33.094Z,10.25
2022-12-25T11:10:05.568Z,10.24
2022-12-25T11:12:41.796Z,10.25
2022-12-25T11:15:42.365Z,10.34
2022-12-25T11:18:33.110Z,10.51
2022-12-25T11:21:18.051Z,10.57
2022-12-25T11:23:50.796Z,10.57
2022-12-25T11:26:18.554Z,10.61
2022-12-25T11:28:46.735Z,10.65
2022-12-25T11:31:23.014Z,10.69
2022-12-25T11:34:04.350Z,10.78
2022-12-25T11:36:43.521Z,10.82
2022-12-25T11:39:30.284Z,10.78
2022-12-25T11:42:23.174Z,10.90
2022-12-25T11:45:26.009Z,11.01
2022-12-25T11:48:04.772Z,11.09
2022-12-25T11:50:36.329Z,11.18
2022-12-25T11:53:17.378Z,11.23
2022-12-25T11:55:50.963Z,11.23
2022-12-25T11:58:42.025Z,11.30
2022-12-25T12:01:21.619Z,11.28
2022-12-25T12:03:49.270Z,11.29
2022-12-25T12:06:54.427Z,11.28
2022-12-25T12:09:55.139Z,11.13
2022-12-25T12:12:48.837Z,11.08
2022-12-25T12:15:28.820Z,11.08
2022-12-25T12:18:07.905Z,10.98
2022-12-25T12:20:36.614Z,10.98
2022-12-25T12:23:15.363Z,11.05
2022-12-25T12:25:44.532Z,11.14
2022-12-25T12:28:21.439Z,11.27
2022-12-25T12:31:04.339Z,11.24
2022-12-25T12:33:36.900Z,11.31
2022-12-25T12:36:05.788Z,11.26
2022-12-25T12:38:34.157Z,11.37
2022-12-25T12:41:07.176Z,11.35
2022-12-25T12:43:52.813Z,11.39
2022-12-25T12:46:30.084Z,11.40
2022-12-25T12:49:19.897Z,11.41
2022-12-25T12:51:48.272Z,11.41
2022-12-25T12:54:23.344Z,11.34
2022-12-25T12:57:06.138Z,11.29
2022-12-25T12:59:38.925Z,11.25
2022-12-25T13:02:25.763Z,11.17
2022-12-25T13:05:05.219Z,11.12
2022-12-25T13:07:56.784Z,11.13
2022-12-25T13:10:32.314Z,11.12
2022-12-25T13:13:23.315Z,11.14
2022-12-25T13:15:51.557Z,11.15
2022-12-25T13:18:20.650Z,11.16
2022-12-25T13:21:01.815Z,11.16
2022-12-25T13:23:34.547Z,11.15
2022-12-25T13:26:04.888Z,11.14
2022-12-25T13:28:33.951Z,11.10
2022-12-25T13:31:13.094Z,11.08
2022-12-25T13:33:44.686Z,11.03
2022-12-25T13:36:14.563Z,10.98
2022-12-25T13:38:46.543Z,10.95
2022-12-25T13:41:19.974Z,10.87
2022-12-25T13:43:48.684Z,10.83
2022-12-25T13:46:16.100Z,10.83
2022-12-25T13:48:43.243Z,10.70
2022-12-25T13:51:15.608Z,10.67
2022-12-25T13:53:43.734Z,10.62
2022-12-25T13:56:15.617Z,10.57
2022-12-25T13:58:46.573Z,10.55
2022-12-25T14:01:16.206Z,10.44
2022-12-25T14:03:45.660Z,10.43
2022-12-25T14:06:18.420Z,10.43
2022-12-25T14:08:46.269Z,10.45
2022-12-25T14:11:19.756Z,10.31
2022-12-25T14:13:49.435Z,10.27
2022-12-25T14:16:19.190Z,10.24
2022-12-25T14:19:00.931Z,10.20
2022-12-25T14:21:34.836Z,10.05
2022-12-25T14:24:02.119Z,9.96
2022-12-25T14:26:32.469Z,9.92
2022-12-25T14:29:05.390Z,9.86
2022-12-25T14:31:33.543Z,9.83
2022-12-25T14:34:02.966Z,9.84
2022-12-25T14:36:33.153Z,9.78
2022-12-25T14:39:22.516Z,9.71
2022-12-25T14:41:54.159Z,9.74
2022-12-25T14:44:24.260Z,9.75
2022-12-25T14:46:51.404Z,9.71
2022-12-25T14:49:25.368Z,9.71
2022-12-25T14:51:52.460Z,9.69
2022-12-25T14:54:22.432Z,9.67
2022-12-25T14:56:52.704Z,9.59
2022-12-25T14:59:24.673Z,9.60
2022-12-25T15:01:59.965Z,9.55
2022-12-25T15:04:28.331Z,9.50
2022-12-25T15:06:58.205Z,9.46
2022-12-25T15:09:26.771Z,9.42
2022-12-25T15:11:55.468Z,9.45
2022-12-25T15:14:23.417Z,9.41
2022-12-25T15:16:57.456Z,9.34
2022-12-25T15:19:33.177Z,9.30
2022-12-25T15:22:03.986Z,9.28
2022-12-25T15:24:31.896Z,9.23
2022-12-25T15:26:58.917Z,9.13
2022-12-25T15:29:52.200Z,9.10
2022-12-25T15:32:21.942Z,9.03
2022-12-25T15:34:49.350Z,9.01
2022-12-25T15:37:17.464Z,8.97
2022-12-25T15:39:45.129Z,8.95
2022-12-25T15:42:18.004Z,8.87
2022-12-25T15:44:45.560Z,8.85
2022-12-25T15:47:14.322Z,8.84
2022-12-25T15:49:42.040Z,8.79
2022-12-25T15:52:13.588Z,8.76
2022-12-25T15:54:47.623Z,8.74
2022-12-25T15:57:19.503Z,8.74
2022-12-25T15:59:46.840Z,8.74
2022-12-25T16:02:19.911Z,8.74
2022-12-25T16:04:47.249Z,8.74
2022-12-25T16:07:19.806Z,8.77
2022-12-25T16:09:47.199Z,8.75
2022-12-25T16:12:14.196Z,8.71
2022-12-25T16:14:41.264Z,8.75
2022-12-25T16:17:15.302Z,8.74
2022-12-25T16:19:43.677Z,8.71
2022-12-25T16:22:18.786Z,8.74
2022-12-25T16:24:45.829Z,8.72
2022-12-25T16:27:12.915Z,8.74
2022-12-25T16:29:39.987Z,8.76
2022-12-25T16:32:07.077Z,8.77
2022-12-25T16:34:38.563Z,8.73
2022-12-25T16:37:05.591Z,8.71
2022-12-25T16:39:33.049Z,8.71
2022-12-25T16:42:00.147Z,8.70
2022-12-25T16:44:27.322Z,8.70
2022-12-25T16:46:54.452Z,8.64
2022-12-25T16:49:21.466Z,8.58
2022-12-25T16:51:48.479Z,8.57
2022-12-25T16:54:15.525Z,8.53
2022-12-25T16:56:42.565Z,8.50
2022-12-25T16:59:09.711Z,8.45
2022-12-25T17:01:39.228Z,8.40
2022-12-25T17:04:06.432Z,8.31
2022-12-25T17:06:33.436Z,8.24
2022-12-25T17:09:01.097Z,8.22
2022-12-25T17:11:28.820Z,8.21
2022-12-25T17:13:57.038Z,8.23
2022-12-25T17:16:29.430Z,8.24
2022-12-25T17:19:13.047Z,8.23
2022-12-25T17:21:40.078Z,8.21
2022-12-25T17:24:07.296Z,8.20
2022-12-25T17:26:34.462Z,8.14
2022-12-25T17:29:01.493Z,8.21
2022-12-25T17:31:28.895Z,8.15
2022-12-25T17:33:56.189Z,8.17
2022-12-25T17:36:23.702Z,8.18
2022-12-25T17:38:50.909Z,8.15
2022-12-25T17:41:19.428Z,8.15
2022-12-25T17:43:47.827Z,8.08
2022-12-25T17:46:20.381Z,8.07
2022-12-25T17:48:47.990Z,8.01
2022-12-25T17:51:17.422Z,7.96
2022-12-25T17:53:47.104Z,7.99
2022-12-25T17:56:15.506Z,8.00
2022-12-25T17:58:42.612Z,7.96
2022-12-25T18:01:14.998Z,7.99
2022-12-25T18:03:44.807Z,7.98
2022-12-25T18:06:17.939Z,7.98
2022-12-25T18:08:49.324Z,8.01
2022-12-25T18:11:19.778Z,7.98
2022-12-25T18:13:48.782Z,8.00
2022-12-25T18:16:20.604Z,8.00
2022-12-25T18:18:52.313Z,7.96
2022-12-25T18:21:20.804Z,7.98
2022-12-25T18:23:48.270Z,7.95
2022-12-25T18:26:15.464Z,7.90
2022-12-25T18:28:43.066Z,7.96
2022-12-25T18:31:12.841Z,7.99
2022-12-25T18:33:40.369Z,8.01
2022-12-25T18:36:11.799Z,8.07
2022-12-25T18:38:39.009Z,8.07
2022-12-25T18:41:07.951Z,8.08
2022-12-25T18:43:53.122Z,8.02
2022-12-25T18:46:24.873Z,8.01
2022-12-25T18:48:53.434Z,7.99
2022-12-25T18:51:20.540Z,8.00
2022-12-25T18:53:47.568Z,7.95
2022-12-25T18:56:17.257Z,7.96
2022-12-25T18:58:45.671Z,7.91
2022-12-25T19:01:18.054Z,7.91
2022-12-25T19:03:45.639Z,7.89
2022-12-25T19:06:26.273Z,7.92
2022-12-25T19:08:54.100Z,7.96
2022-12-25T19:11:21.477Z,7.98
2022-12-25T19:13:48.934Z,8.00
2022-12-25T19:16:17.104Z,8.01
2022-12-25T19:18:45.452Z,7.92
2022-12-25T19:21:12.480Z,7.95
2022-12-25T19:23:39.668Z,7.94
2022-12-25T19:26:08.280Z,7.87
2022-12-25T19:28:35.931Z,7.82
2022-12-25T19:31:06.105Z,7.82
2022-12-25T19:33:34.817Z,7.80
2022-12-25T19:36:09.000Z,7.86
2022-12-25T19:38:36.375Z,7.84
2022-12-25T19:41:14.589Z,7.84
2022-12-25T19:43:42.798Z,7.81
2022-12-25T19:46:22.734Z,7.82
2022-12-25T19:48:50.549Z,7.79
2022-12-25T19:51:20.954Z,7.79
2022-12-25T19:53:48.357Z,7.82
2022-12-25T19:56:16.235Z,7.83
2022-12-25T19:58:43.494Z,7.87
2022-12-25T20:01:16.609Z,7.85
2022-12-25T20:03:46.490Z,7.86
2022-12-25T20:06:23.037Z,7.87
2022-12-25T20:08:53.507Z,7.85
2022-12-25T20:11:23.426Z,7.86
2022-12-25T20:13:50.753Z,7.86
2022-12-25T20:16:18.003Z,7.87
2022-12-25T20:18:45.232Z,7.89
2022-12-25T20:21:14.840Z,7.86
2022-12-25T20:23:42.816Z,7.83
2022-12-25T20:26:11.257Z,7.80
2022-12-25T20:28:39.588Z,7.81
2022-12-25T20:31:08.093Z,7.83
2022-12-25T20:33:35.477Z,7.86
2022-12-25T20:36:03.797Z,7.86
2022-12-25T20:38:30.902Z,7.89
2022-12-25T20:43:53.144Z,7.91
2022-12-25T20:46:20.302Z,7.93
2022-12-25T20:48:47.439Z,7.93
2022-12-25T20:51:20.812Z,7.93
2022-12-25T20:53:48.226Z,7.91
2022-12-25T20:56:17.812Z,7.92
2022-12-25T20:58:45.458Z,7.92
2022-12-25T21:01:17.503Z,7.95
2022-12-25T21:03:45.757Z,7.94
2022-12-25T21:06:13.158Z,7.90
2022-12-25T21:08:40.698Z,7.93
2022-12-25T21:11:08.894Z,7.94
2022-12-25T21:14:09.428Z,8.01
2022-12-25T21:16:36.513Z,8.03
2022-12-25T21:19:03.656Z,8.10
2022-12-25T21:21:30.677Z,8.10
2022-12-25T21:23:57.688Z,8.13
2022-12-25T21:26:27.656Z,8.17
2022-12-25T21:28:57.219Z,8.19
2022-12-25T21:31:25.045Z,8.22
2022-12-25T21:33:55.064Z,8.22
2022-12-25T21:36:34.104Z,8.25
2022-12-25T21:39:07.662Z,8.29
2022-12-25T21:41:37.200Z,8.36
2022-12-25T21:44:04.879Z,8.40
2022-12-25T21:46:50.314Z,8.43
2022-12-25T21:49:17.379Z,8.47
2022-12-25T21:51:44.395Z,8.49
2022-12-25T21:54:12.787Z,8.55
2022-12-25T21:56:44.772Z,8.61
2022-12-25T21:59:16.028Z,8.66
2022-12-25T22:01:44.349Z,8.66
2022-12-25T22:04:13.438Z,8.71
2022-12-25T22:06:40.716Z,8.76
2022-12-25T22:09:09.066Z,8.82
2022-12-25T22:11:36.268Z,8.91
2022-12-25T22:14:03.223Z,8.97
2022-12-25T22:16:30.223Z,9.06
2022-12-25T22:18:57.210Z,9.14
2022-12-25T22:21:26.903Z,9.20
2022-12-25T22:23:53.958Z,9.29
2022-12-25T22:26:21.288Z,9.36
2022-12-25T22:28:48.289Z,9.36
2022-12-25T22:31:15.331Z,9.42
2022-12-25T22:33:42.423Z,9.48
2022-12-25T22:36:09.638Z,9.61
2022-12-25T22:38:36.712Z,9.62
2022-12-25T22:41:07.388Z,9.68
2022-12-25T22:44:14.406Z,9.71
2022-12-25T22:46:21.915Z,9.76
2022-12-25T22:48:49.205Z,9.78
2022-12-25T22:51:16.294Z,9.82
2022-12-25T22:53:43.277Z,9.85
2022-12-25T22:56:10.577Z,9.88
2022-12-25T22:58:37.581Z,9.88
2022-12-25T23:01:08.771Z,9.85
2022-12-25T23:03:36.127Z,9.82
2022-12-25T23:06:03.591Z,9.85
2022-12-25T23:08:30.620Z,9.83
2022-12-25T23:11:04.861Z,9.85
2022-12-25T23:13:31.888Z,9.85
2022-12-25T23:16:00.238Z,9.83
2022-12-25T23:18:27.391Z,9.82
2022-12-25T23:20:59.936Z,9.80
2022-12-25T23:23:26.935Z,9.81
2022-12-25T23:25:53.941Z,9.81
2022-12-25T23:28:22.456Z,9.82
2022-12-25T23:30:49.584Z,9.80
2022-12-25T23:33:16.637Z,9.78
2022-12-25T23:35:43.614Z,9.79
2022-12-25T23:38:10.618Z,9.82
2022-12-25T23:40:37.601Z,9.80
2022-12-25T23:43:04.600Z,9.82
2022-12-25T23:45:31.615Z,9.76
2022-12-25T23:47:58.655Z,9.80
2022-12-25T23:50:25.680Z,9.79
2022-12-25T23:52:52.669Z,9.79
2022-12-25T23:55:19.763Z,9.81
2022-12-25T23:57:46.763Z,9.80
